createdAt,value
2018-05-27T00:00:58.934Z,3.17
2018-05-27T00:03:26.416Z,3.73
2018-05-27T00:05:54.631Z,3.00
2018-05-27T00:08:22.109Z,3.30
2018-05-27T00:10:49.561Z,3.00
2018-05-27T00:13:17.028Z,2.90
2018-05-27T00:15:44.506Z,3.20
2018-05-27T00:18:11.950Z,3.57
2018-05-27T00:20:39.409Z,3.40
2018-05-27T00:23:06.856Z,3.33
2018-05-27T00:25:34.311Z,3.30
2018-05-27T00:28:01.816Z,3.10
2018-05-27T00:30:30.042Z,3.57
2018-05-27T00:32:57.477Z,3.83
2018-05-27T00:35:24.961Z,3.20
2018-05-27T00:37:52.990Z,3.83
2018-05-27T00:40:21.227Z,3.60
2018-05-27T00:42:48.673Z,3.40
2018-05-27T00:45:16.128Z,3.60
2018-05-27T00:47:43.607Z,3.63
2018-05-27T00:50:11.092Z,3.70
2018-05-27T00:52:39.316Z,3.43
2018-05-27T00:55:06.776Z,3.33
2018-05-27T00:57:34.230Z,3.63
2018-05-27T01:00:01.716Z,3.17
2018-05-27T01:02:29.961Z,3.37
2018-05-27T01:04:57.396Z,3.40
2018-05-27T01:07:24.880Z,3.30
2018-05-27T01:09:52.318Z,3.70
2018-05-27T01:12:19.779Z,3.20
2018-05-27T01:14:47.239Z,3.90
2018-05-27T01:17:14.699Z,3.27
2018-05-27T01:19:42.182Z,3.90
2018-05-27T01:22:09.636Z,3.30
2018-05-27T01:24:37.125Z,3.13
2018-05-27T01:27:05.364Z,3.80
2018-05-27T01:29:33.026Z,3.60
2018-05-27T01:32:01.289Z,3.37
2018-05-27T01:34:28.764Z,3.90
2018-05-27T01:36:56.244Z,3.57
2018-05-27T01:39:23.705Z,3.73
2018-05-27T01:41:51.954Z,3.60
2018-05-27T01:44:19.429Z,3.67
2018-05-27T01:46:46.892Z,3.90
2018-05-27T01:49:14.362Z,3.93
2018-05-27T01:51:42.618Z,3.63
2018-05-27T01:54:10.101Z,3.77
2018-05-27T01:56:38.372Z,4.00
2018-05-27T01:59:06.628Z,4.20
2018-05-27T02:01:34.089Z,3.60
2018-05-27T02:04:01.573Z,3.33
2018-05-27T02:06:29.067Z,3.70
2018-05-27T02:08:56.537Z,3.53
2018-05-27T02:11:24.000Z,3.73
2018-05-27T02:13:51.619Z,3.93
2018-05-27T02:16:19.106Z,3.60
2018-05-27T02:18:46.591Z,3.60
2018-05-27T02:21:14.048Z,3.50
2018-05-27T02:23:41.528Z,3.80
2018-05-27T02:26:09.869Z,3.63
2018-05-27T02:28:37.357Z,3.67
2018-05-27T02:31:05.601Z,3.57
2018-05-27T02:33:33.094Z,3.53
2018-05-27T02:36:01.300Z,3.30
2018-05-27T02:38:28.806Z,3.50
2018-05-27T02:40:56.284Z,3.40
2018-05-27T02:43:23.735Z,3.70
2018-05-27T02:45:51.231Z,4.07
2018-05-27T02:48:18.713Z,4.13
2018-05-27T02:50:46.220Z,3.73
2018-05-27T02:53:14.448Z,3.47
2018-05-27T02:55:41.921Z,3.90
2018-05-27T02:58:09.393Z,3.93
2018-05-27T03:00:36.851Z,3.73
2018-05-27T03:03:04.336Z,4.00
2018-05-27T03:05:32.548Z,3.43
2018-05-27T03:08:01.032Z,3.57
2018-05-27T03:10:28.489Z,3.67
2018-05-27T03:12:55.957Z,3.73
2018-05-27T03:15:23.403Z,4.00
2018-05-27T03:17:50.873Z,3.90
2018-05-27T03:20:18.333Z,3.60
2018-05-27T03:22:45.823Z,4.00
2018-05-27T03:25:14.054Z,3.27
2018-05-27T03:27:41.554Z,3.67
2018-05-27T03:30:09.005Z,3.57
2018-05-27T03:32:36.477Z,3.87
2018-05-27T03:35:04.704Z,3.73
2018-05-27T03:37:32.165Z,3.50
2018-05-27T03:39:59.653Z,3.27
2018-05-27T03:42:27.091Z,3.83
2018-05-27T03:44:54.548Z,3.70
2018-05-27T03:47:22.030Z,4.67
2018-05-27T03:49:49.486Z,3.53
2018-05-27T03:52:16.947Z,4.00
2018-05-27T03:54:45.192Z,3.63
2018-05-27T03:57:12.660Z,3.80
2018-05-27T03:59:40.141Z,3.37
2018-05-27T04:02:07.622Z,3.63
2018-05-27T04:04:53.212Z,3.97
2018-05-27T04:07:32.527Z,3.33
2018-05-27T04:10:00.801Z,3.03
2018-05-27T04:12:29.029Z,3.73
2018-05-27T04:14:56.526Z,3.90
2018-05-27T04:17:23.985Z,3.60
2018-05-27T04:19:51.437Z,3.00
2018-05-27T04:22:18.928Z,3.37
2018-05-27T04:24:47.179Z,3.57
2018-05-27T04:27:15.407Z,3.50
2018-05-27T04:29:42.929Z,3.63
2018-05-27T04:32:11.177Z,3.50
2018-05-27T04:34:38.630Z,3.43
2018-05-27T04:37:06.095Z,3.53
2018-05-27T04:39:33.609Z,3.50
2018-05-27T04:42:01.089Z,3.50
2018-05-27T04:44:28.570Z,3.87
2018-05-27T04:46:56.068Z,3.80
2018-05-27T04:49:23.556Z,3.47
2018-05-27T04:51:51.065Z,3.27
2018-05-27T04:54:19.271Z,3.40
2018-05-27T04:56:46.757Z,3.70
2018-05-27T04:59:14.213Z,3.53
2018-05-27T05:01:41.708Z,3.40
2018-05-27T05:04:09.940Z,3.50
2018-05-27T05:06:37.413Z,3.40
2018-05-27T05:09:05.720Z,3.43
2018-05-27T05:11:33.943Z,3.40
2018-05-27T05:14:01.416Z,3.40
2018-05-27T05:16:28.865Z,3.03
2018-05-27T05:18:56.330Z,2.90
2018-05-27T05:21:23.784Z,3.13
2018-05-27T05:23:51.336Z,3.30
2018-05-27T05:26:18.811Z,3.00
2018-05-27T05:28:46.293Z,3.20
2018-05-27T05:31:13.749Z,2.90
2018-05-27T05:33:41.969Z,3.10
2018-05-27T05:36:09.456Z,3.40
2018-05-27T05:38:37.667Z,2.97
2018-05-27T05:41:05.888Z,3.00
2018-05-27T05:43:33.391Z,2.77
2018-05-27T05:46:00.860Z,2.80
2018-05-27T05:48:29.102Z,2.73
2018-05-27T05:50:56.544Z,2.77
2018-05-27T05:53:24.009Z,3.03
2018-05-27T05:55:51.489Z,3.00
2018-05-27T05:58:18.942Z,2.70
2018-05-27T06:00:46.427Z,2.70
2018-05-27T06:03:14.632Z,2.73
2018-05-27T06:05:42.085Z,2.70
2018-05-27T06:08:09.549Z,2.97
2018-05-27T06:10:37.021Z,2.63
2018-05-27T06:13:04.485Z,2.80
2018-05-27T06:15:31.920Z,3.07
2018-05-27T06:17:59.397Z,2.53
2018-05-27T06:20:26.875Z,2.57
2018-05-27T06:22:54.348Z,2.87
2018-05-27T06:25:22.588Z,2.50
2018-05-27T06:27:50.061Z,2.50
2018-05-27T06:30:17.517Z,2.53
2018-05-27T06:32:44.968Z,2.80
2018-05-27T06:35:12.553Z,2.93
2018-05-27T06:37:40.016Z,2.90
2018-05-27T06:40:08.230Z,2.73
2018-05-27T06:42:35.689Z,2.80
2018-05-27T06:45:03.153Z,2.53
2018-05-27T06:47:30.599Z,2.43
2018-05-27T06:49:58.062Z,2.80
2018-05-27T06:52:25.524Z,2.60
2018-05-27T06:54:52.977Z,2.80
2018-05-27T06:57:20.461Z,2.50
2018-05-27T06:59:47.956Z,2.47
2018-05-27T07:02:16.168Z,2.63
2018-05-27T07:04:43.679Z,2.53
2018-05-27T07:07:11.136Z,2.70
2018-05-27T07:09:38.600Z,2.73
2018-05-27T07:12:06.077Z,3.33
2018-05-27T07:14:34.333Z,2.33
2018-05-27T07:17:01.845Z,2.53
2018-05-27T07:19:29.273Z,2.70
2018-05-27T07:21:56.748Z,2.40
2018-05-27T07:24:24.212Z,2.80
2018-05-27T07:26:51.687Z,2.70
2018-05-27T07:29:19.479Z,2.83
2018-05-27T07:31:47.019Z,2.60
2018-05-27T07:34:14.470Z,2.63
2018-05-27T07:36:41.937Z,2.70
2018-05-27T07:39:09.393Z,2.47
2018-05-27T07:41:36.850Z,2.53
2018-05-27T07:44:04.304Z,2.20
2018-05-27T07:46:31.819Z,2.57
2018-05-27T07:49:00.047Z,2.23
2018-05-27T07:51:27.495Z,2.67
2018-05-27T07:53:54.968Z,2.90
2018-05-27T07:56:23.209Z,2.30
2018-05-27T07:58:50.644Z,2.77
2018-05-27T08:01:18.095Z,2.70
2018-05-27T08:03:45.553Z,2.77
2018-05-27T08:06:12.997Z,2.50
2018-05-27T08:08:40.480Z,2.27
2018-05-27T08:11:07.924Z,2.27
2018-05-27T08:13:35.422Z,2.70
2018-05-27T08:16:03.633Z,2.43
2018-05-27T08:18:31.104Z,2.63
2018-05-27T08:20:58.585Z,2.23
2018-05-27T08:23:26.024Z,2.63
2018-05-27T08:25:53.473Z,2.70
2018-05-27T08:28:20.973Z,2.40
2018-05-27T08:30:48.411Z,2.60
2018-05-27T08:33:15.900Z,2.90
2018-05-27T08:35:43.407Z,3.20
2018-05-27T08:38:10.861Z,3.00
2018-05-27T08:40:38.338Z,2.63
2018-05-27T08:43:05.825Z,2.70
2018-05-27T08:45:33.280Z,2.33
2018-05-27T08:48:00.752Z,2.53
2018-05-27T08:50:28.963Z,2.40
2018-05-27T08:52:56.436Z,2.93
2018-05-27T08:55:23.924Z,2.70
2018-05-27T08:57:51.396Z,3.03
2018-05-27T09:00:18.871Z,2.63
2018-05-27T09:02:47.109Z,2.40
2018-05-27T09:05:14.555Z,2.50
2018-05-27T09:07:42.039Z,2.90
2018-05-27T09:10:09.520Z,2.80
2018-05-27T09:12:37.763Z,2.53
2018-05-27T09:15:05.234Z,2.93
2018-05-27T09:17:32.704Z,2.40
2018-05-27T09:20:00.950Z,2.30
2018-05-27T09:22:28.392Z,2.33
2018-05-27T09:24:55.891Z,2.30
2018-05-27T09:27:23.357Z,2.50
2018-05-27T09:29:51.580Z,2.47
2018-05-27T09:32:19.067Z,2.30
2018-05-27T09:34:46.543Z,2.60
2018-05-27T09:37:14.796Z,2.30
2018-05-27T09:39:42.273Z,2.90
2018-05-27T09:42:10.505Z,2.40
2018-05-27T09:44:37.958Z,2.70
2018-05-27T09:47:05.447Z,2.40
2018-05-27T09:49:32.892Z,2.27
2018-05-27T09:52:00.349Z,2.63
2018-05-27T09:54:28.574Z,2.10
2018-05-27T09:56:56.021Z,2.80
2018-05-27T09:59:24.629Z,2.30
2018-05-27T10:01:52.141Z,2.30
2018-05-27T10:04:21.386Z,2.50
2018-05-27T10:06:48.841Z,2.40
2018-05-27T10:09:16.300Z,2.53
2018-05-27T10:11:43.823Z,2.53
2018-05-27T10:14:11.220Z,2.20
2018-05-27T10:16:38.677Z,2.20
2018-05-27T10:19:06.148Z,2.17
2018-05-27T10:21:33.616Z,2.60
2018-05-27T10:24:01.075Z,2.90
2018-05-27T10:26:28.564Z,2.60
2018-05-27T10:28:56.804Z,2.27
2018-05-27T10:31:24.288Z,2.47
2018-05-27T10:33:51.724Z,2.30
2018-05-27T10:36:19.211Z,2.50
2018-05-27T10:38:47.450Z,2.03
2018-05-27T10:41:15.688Z,4.90
2018-05-27T10:43:43.174Z,3.10
2018-05-27T10:46:10.644Z,2.50
2018-05-27T10:48:38.112Z,2.37
2018-05-27T10:51:05.579Z,2.13
2018-05-27T10:53:33.047Z,2.43
2018-05-27T10:56:00.497Z,2.20
2018-05-27T10:58:27.983Z,2.47
2018-05-27T11:00:56.187Z,2.50
2018-05-27T11:03:23.655Z,2.30
2018-05-27T11:05:51.194Z,2.60
2018-05-27T11:08:19.377Z,2.20
2018-05-27T11:10:46.857Z,2.60
2018-05-27T11:13:14.333Z,2.40
2018-05-27T11:15:41.773Z,2.33
2018-05-27T11:18:09.253Z,2.20
2018-05-27T11:20:36.708Z,2.53
2018-05-27T11:23:04.176Z,2.50
2018-05-27T11:25:32.403Z,2.43
2018-05-27T11:27:59.896Z,2.50
2018-05-27T11:30:27.340Z,2.33
2018-05-27T11:32:54.794Z,2.03
2018-05-27T11:35:22.268Z,2.47
2018-05-27T11:37:49.735Z,2.17
2018-05-27T11:40:17.945Z,2.47
2018-05-27T11:42:45.395Z,2.10
2018-05-27T11:45:12.877Z,2.20
2018-05-27T11:47:40.349Z,2.40
2018-05-27T11:50:07.818Z,2.30
2018-05-27T11:52:35.259Z,2.00
2018-05-27T11:55:02.735Z,2.13
2018-05-27T11:57:30.180Z,2.13
2018-05-27T11:59:57.662Z,2.10
2018-05-27T12:02:25.146Z,2.17
2018-05-27T12:04:53.387Z,2.10
2018-05-27T12:07:20.833Z,1.90
2018-05-27T12:09:48.293Z,2.17
2018-05-27T12:12:15.732Z,2.10
2018-05-27T12:14:43.217Z,2.20
2018-05-27T12:17:10.696Z,2.63
2018-05-27T12:19:38.939Z,2.77
2018-05-27T12:22:06.412Z,2.50
2018-05-27T12:24:33.865Z,2.33
2018-05-27T12:27:01.312Z,2.43
2018-05-27T12:29:29.184Z,2.07
2018-05-27T12:31:56.699Z,1.90
2018-05-27T12:34:24.176Z,2.37
2018-05-27T12:36:51.692Z,2.30
2018-05-27T12:39:19.145Z,2.00
2018-05-27T12:41:47.383Z,2.30
2018-05-27T12:44:14.827Z,2.07
2018-05-27T12:46:42.309Z,2.73
2018-05-27T12:49:09.784Z,1.90
2018-05-27T12:51:38.019Z,2.23
2018-05-27T12:54:05.487Z,2.07
2018-05-27T12:56:32.941Z,2.20
2018-05-27T12:59:00.392Z,1.80
2018-05-27T13:01:28.638Z,1.97
2018-05-27T13:03:56.116Z,2.30
2018-05-27T13:06:23.572Z,1.90
2018-05-27T13:08:51.066Z,2.30
2018-05-27T13:11:18.540Z,2.20
2018-05-27T13:13:45.999Z,2.13
2018-05-27T13:16:14.234Z,2.17
2018-05-27T13:18:41.693Z,2.10
2018-05-27T13:21:09.184Z,2.30
2018-05-27T13:23:36.641Z,1.77
2018-05-27T13:26:04.120Z,2.20
2018-05-27T13:28:31.584Z,2.00
2018-05-27T13:30:59.108Z,2.00
2018-05-27T13:33:26.536Z,1.70
2018-05-27T13:35:53.995Z,2.13
2018-05-27T13:38:21.477Z,2.23
2018-05-27T13:40:48.951Z,1.80
2018-05-27T13:43:17.728Z,2.20
2018-05-27T13:45:45.218Z,2.10
2018-05-27T13:48:12.691Z,2.17
2018-05-27T13:50:40.159Z,2.23
2018-05-27T13:53:07.614Z,2.07
2018-05-27T13:55:35.083Z,1.80
2018-05-27T13:58:02.555Z,2.00
2018-05-27T14:00:29.993Z,1.90
2018-05-27T14:02:57.483Z,2.43
2018-05-27T14:05:24.963Z,2.00
2018-05-27T14:07:53.713Z,2.23
2018-05-27T14:10:21.220Z,2.23
2018-05-27T14:12:48.668Z,2.20
2018-05-27T14:15:16.929Z,1.80
2018-05-27T14:17:44.372Z,2.03
2018-05-27T14:20:11.833Z,1.80
2018-05-27T14:22:39.308Z,2.10
2018-05-27T14:25:07.552Z,1.90
2018-05-27T14:27:34.999Z,2.20
2018-05-27T14:30:02.467Z,1.90
2018-05-27T14:32:29.914Z,2.00
2018-05-27T14:34:57.372Z,1.83
2018-05-27T14:37:25.588Z,2.03
2018-05-27T14:39:53.801Z,1.70
2018-05-27T14:42:21.281Z,2.20
2018-05-27T14:44:48.784Z,1.90
2018-05-27T14:47:16.193Z,1.80
2018-05-27T14:49:43.654Z,1.87
2018-05-27T14:52:11.108Z,2.10
2018-05-27T14:54:38.568Z,1.60
2018-05-27T14:57:06.055Z,1.70
2018-05-27T14:59:34.108Z,1.70
2018-05-27T15:02:02.377Z,1.70
2018-05-27T15:04:29.872Z,1.43
2018-05-27T15:06:58.139Z,1.30
2018-05-27T15:09:26.346Z,1.30
2018-05-27T15:11:53.832Z,1.30
2018-05-27T15:14:21.307Z,1.37
2018-05-27T15:16:48.791Z,1.90
2018-05-27T15:19:17.030Z,1.03
2018-05-27T15:21:44.501Z,1.50
2018-05-27T15:24:11.965Z,1.37
2018-05-27T15:26:39.422Z,1.27
2018-05-27T15:29:06.878Z,2.77
2018-05-27T15:31:34.340Z,1.67
2018-05-27T15:34:01.794Z,1.40
2018-05-27T15:36:29.244Z,1.40
2018-05-27T15:38:56.704Z,1.63
2018-05-27T15:41:24.157Z,1.63
2018-05-27T15:43:51.659Z,1.70
2018-05-27T15:46:19.887Z,2.33
2018-05-27T15:48:47.332Z,1.40
2018-05-27T15:51:14.813Z,1.77
2018-05-27T15:53:42.252Z,1.53
2018-05-27T15:56:09.747Z,1.40
2018-05-27T15:58:37.980Z,1.47
2018-05-27T16:01:05.497Z,1.60
2018-05-27T16:03:33.745Z,1.63
2018-05-27T16:06:01.209Z,1.60
2018-05-27T16:08:28.651Z,1.47
2018-05-27T16:10:56.105Z,1.60
2018-05-27T16:13:23.566Z,1.57
2018-05-27T16:15:51.021Z,1.83
2018-05-27T16:18:18.508Z,2.07
2018-05-27T16:20:46.738Z,1.80
2018-05-27T16:23:14.184Z,1.90
2018-05-27T16:25:41.636Z,2.33
2018-05-27T16:28:09.096Z,1.60
2018-05-27T16:30:36.573Z,1.80
2018-05-27T16:33:04.091Z,1.57
2018-05-27T16:35:32.331Z,1.40
2018-05-27T16:37:59.813Z,1.50
2018-05-27T16:40:28.049Z,1.83
2018-05-27T16:42:55.520Z,1.90
2018-05-27T16:45:22.981Z,1.63
2018-05-27T16:47:50.549Z,2.17
2018-05-27T16:50:18.793Z,1.90
2018-05-27T16:52:46.328Z,2.03
2018-05-27T16:55:13.740Z,2.13
2018-05-27T16:57:41.960Z,2.50
2018-05-27T17:00:09.446Z,1.93
2018-05-27T17:02:36.910Z,2.67
2018-05-27T17:05:04.386Z,1.70
2018-05-27T17:07:32.615Z,1.93
2018-05-27T17:10:00.073Z,1.93
2018-05-27T17:12:27.591Z,1.80
2018-05-27T17:14:55.051Z,2.10
2018-05-27T17:17:22.511Z,1.60
2018-05-27T17:19:50.001Z,1.87
2018-05-27T17:22:17.485Z,1.70
2018-05-27T17:24:44.956Z,1.90
2018-05-27T17:27:12.416Z,2.03
2018-05-27T17:29:39.927Z,1.73
2018-05-27T17:32:07.381Z,2.13
2018-05-27T17:34:34.851Z,2.10
2018-05-27T17:37:02.337Z,3.17
2018-05-27T17:39:29.809Z,2.00
2018-05-27T17:41:57.257Z,2.10
2018-05-27T17:44:24.696Z,1.93
2018-05-27T17:46:52.187Z,2.17
2018-05-27T17:49:20.396Z,4.03
2018-05-27T17:51:47.884Z,2.63
2018-05-27T17:54:15.378Z,3.10
2018-05-27T17:56:43.616Z,2.60
2018-05-27T17:59:11.922Z,2.40
2018-05-27T18:01:40.153Z,2.40
2018-05-27T18:04:07.635Z,2.07
2018-05-27T18:06:35.067Z,2.23
2018-05-27T18:09:02.537Z,2.87
2018-05-27T18:11:30.003Z,2.57
2018-05-27T18:13:57.460Z,2.80
2018-05-27T18:16:24.969Z,2.77
2018-05-27T18:18:52.413Z,2.50
2018-05-27T18:21:20.646Z,2.47
2018-05-27T18:23:48.140Z,2.83
2018-05-27T18:26:15.570Z,3.00
2018-05-27T18:28:43.055Z,2.97
2018-05-27T18:31:11.268Z,2.40
2018-05-27T18:33:38.751Z,2.60
2018-05-27T18:36:06.215Z,2.30
2018-05-27T18:38:33.691Z,1.87
2018-05-27T18:41:01.131Z,1.87
2018-05-27T18:43:28.580Z,2.13
2018-05-27T18:45:56.066Z,2.13
2018-05-27T18:48:23.544Z,2.30
2018-05-27T18:50:51.751Z,2.60
2018-05-27T18:53:19.261Z,2.90
2018-05-27T18:55:46.738Z,2.83
2018-05-27T18:58:14.190Z,2.90
2018-05-27T19:00:41.776Z,2.90
2018-05-27T19:03:09.291Z,2.87
2018-05-27T19:05:36.756Z,2.60
2018-05-27T19:08:05.005Z,3.20
2018-05-27T19:10:32.445Z,2.93
2018-05-27T19:12:59.959Z,3.07
2018-05-27T19:15:27.383Z,3.27
2018-05-27T19:17:54.820Z,3.63
2018-05-27T19:20:22.286Z,3.13
2018-05-27T19:22:49.752Z,3.27
2018-05-27T19:25:20.928Z,3.23
2018-05-27T19:27:49.132Z,3.10
2018-05-27T19:30:16.588Z,2.83
2018-05-27T19:32:44.040Z,3.13
2018-05-27T19:35:11.500Z,3.03
2018-05-27T19:37:38.991Z,3.43
2018-05-27T19:40:06.460Z,3.07
2018-05-27T19:42:33.905Z,2.97
2018-05-27T19:45:01.351Z,2.90
2018-05-27T19:47:28.802Z,2.97
2018-05-27T19:49:56.262Z,3.13
2018-05-27T19:52:24.536Z,3.00
2018-05-27T19:54:52.008Z,3.00
2018-05-27T19:57:19.474Z,3.10
2018-05-27T19:59:46.963Z,3.40
2018-05-27T20:02:14.440Z,2.90
2018-05-27T20:04:41.920Z,3.23
2018-05-27T20:07:09.387Z,2.77
2018-05-27T20:09:36.847Z,2.63
2018-05-27T20:12:04.340Z,2.80
2018-05-27T20:14:31.841Z,2.80
2018-05-27T20:16:59.317Z,3.30
2018-05-27T20:19:27.556Z,2.83
2018-05-27T20:21:55.045Z,4.43
2018-05-27T20:24:22.508Z,3.30
2018-05-27T20:26:49.967Z,2.70
2018-05-27T20:29:17.659Z,3.00
2018-05-27T20:31:45.197Z,2.87
2018-05-27T20:34:12.655Z,2.70
2018-05-27T20:36:40.123Z,3.40
2018-05-27T20:39:07.590Z,3.40
2018-05-27T20:41:35.064Z,4.10
2018-05-27T20:44:03.273Z,3.67
2018-05-27T20:46:30.736Z,3.40
2018-05-27T20:48:58.221Z,3.60
2018-05-27T20:51:25.699Z,3.43
2018-05-27T20:53:53.148Z,4.03
2018-05-27T20:56:20.628Z,5.23
2018-05-27T20:58:48.835Z,4.50
2018-05-27T21:01:16.285Z,4.10
2018-05-27T21:03:43.768Z,3.73
2018-05-27T21:06:11.232Z,4.70
2018-05-27T21:08:38.682Z,4.63
2018-05-27T21:11:06.164Z,4.00
2018-05-27T21:13:33.635Z,4.00
2018-05-27T21:16:01.870Z,3.77
2018-05-27T22:34:27.220Z,3.23
2018-05-27T22:36:54.668Z,3.03
2018-05-27T22:39:22.119Z,2.63
2018-05-27T22:41:49.587Z,3.37
2018-05-27T22:44:17.052Z,3.43
2018-05-27T22:46:44.529Z,3.40
2018-05-27T22:49:12.753Z,3.30
2018-05-27T22:51:41.033Z,3.23
2018-05-27T22:54:08.504Z,3.10
2018-05-27T22:56:35.988Z,3.43
2018-05-27T22:59:04.257Z,3.40
2018-05-27T23:01:32.477Z,3.63
2018-05-27T23:03:59.964Z,3.40
2018-05-27T23:06:27.419Z,3.50
2018-05-27T23:08:54.908Z,3.00
2018-05-27T23:11:23.141Z,3.30
2018-05-27T23:13:50.617Z,4.07
2018-05-27T23:16:18.097Z,3.57
2018-05-27T23:18:45.588Z,3.50
2018-05-27T23:21:13.040Z,3.10
2018-05-27T23:23:40.496Z,3.70
2018-05-27T23:26:07.986Z,3.60
2018-05-27T23:28:35.477Z,3.00
2018-05-27T23:31:02.924Z,3.27
2018-05-27T23:33:30.422Z,3.30
2018-05-27T23:35:58.645Z,3.23
2018-05-27T23:38:26.109Z,3.47
2018-05-27T23:40:53.640Z,3.47
2018-05-27T23:43:21.129Z,3.73
2018-05-27T23:45:48.612Z,3.40
2018-05-27T23:48:16.872Z,3.60
2018-05-27T23:50:44.389Z,3.00
2018-05-27T23:53:11.840Z,3.80
2018-05-27T23:55:39.293Z,3.50
2018-05-27T23:58:06.751Z,3.33
